Latest Coastal Weather Observations for Hindmarsh Island

IDS60701

Issued at 9:11 am CDT Tuesday 24 October 2017 (issued every 10 minutes, with the page automatically refreshed every 10 minutes)

About coastal observations | Map of coastal stations | Coastal observations for SA | Marine services | Other Formats
Station Details ID: 023894 Name: HINDMARSH ISLAND AWS Lat: -35.52 Lon: 138.82 Height: 11.0 m
Data from the previous 72 hours. | See also: Recent months at Hindmarsh Island
Date/Time
CDT
Temp
°C
Wind Pressure Rain since
9am
mm
Weather Cloud Vis
km
Sea
Height
m
Swell
Dir  Spd
kts
Gust
kts
hPa Trend Height
m
Period
s
Dir
24/09:00am 16.5 NE 4 6 1014.7 - 0.0 - - - - - - -
24/08:30am 15.9 NE 5 7 1015.0 - 0.0 - - - - - - -
24/08:00am 14.7 NE 4 5 1015.0 - 0.0 - - - - - - -
24/07:30am 13.7 E 5 5 1014.9 - 0.0 - - - - - - -
24/07:00am 13.7 CALM 0 3 1014.9 - 0.0 - - - - - - -
24/06:30am 13.2 NNW 1 3 1015.0 - 0.0 - - - - - - -
24/06:00am 12.8 NNW 1 3 1014.6 - 0.0 - - - - - - -
24/05:30am 13.3 NNW 4 5 1014.6 - 0.0 - - - - - - -
24/05:00am 13.1 NNW 3 4 1014.6 - 0.0 - - - - - - -
24/04:30am 13.2 NNW 3 3 1014.6 - 0.0 - - - - - - -
24/04:00am 13.3 NNW 3 4 1014.7 - 0.0 - - - - - - -
24/03:30am 13.1 NNE 4 5 1014.7 - 0.0 - - - - - - -
24/03:00am 13.1 ENE 5 6 1014.9 - 0.0 - - - - - - -
24/02:30am 13.6 ENE 4 5 1015.3 - 0.0 - - - - - - -
24/02:00am 14.1 CALM 0 0 1015.5 - 0.0 - - - - - - -
24/01:30am 14.0 NW 3 3 1016.0 - 0.0 - - - - - - -
24/01:00am 14.1 NE 3 5 1015.9 - 0.0 - - - - - - -
24/12:30am 14.2 NE 3 4 1016.7 - 0.0 - - - - - - -
24/12:00am 14.1 ENE 3 4 1017.0 - 0.0 - - - - - - -
 
Date/Time
CDT
Temp
°C
Wind Pressure Rain since
9am
mm
Weather Cloud Vis
km
Sea
Height
m
Swell
Dir  Spd
kts
Gust
kts
hPa Trend Height
m
Period
s
Dir
23/11:30pm 13.6 E 4 5 1017.1 - 0.0 - - - - - - -
23/11:00pm 13.9 E 5 5 1017.3 - 0.0 - - - - - - -
23/10:30pm 14.2 ESE 6 8 1017.3 - 0.0 - - - - - - -
23/10:00pm 14.8 SE 8 10 1017.4 - 0.0 - - - - - - -
23/09:30pm 14.9 SSE 7 9 1017.7 - 0.0 - - - - - - -
23/09:00pm 15.0 SSE 9 10 1017.3 - 0.0 - - - - - - -
23/08:30pm 15.0 S 9 11 1016.9 - 0.0 - - - - - - -
23/08:00pm 15.1 S 10 11 1017.0 - 0.0 - - - - - - -
23/07:30pm 15.2 SSE 10 11 1016.8 - 0.0 - - - - - - -
23/07:00pm 15.6 SE 9 10 1016.4 - 0.0 - - - - - - -
23/06:30pm 15.8 SE 11 14 1016.5 - 0.0 - - - - - - -
23/06:00pm 15.8 SE 10 13 1016.5 - 0.0 - - - - - - -
23/05:30pm 16.0 SSE 11 13 1016.5 - 0.0 - - - - - - -
23/05:00pm 16.2 SSE 13 15 1016.6 - 0.0 - - - - - - -
23/04:30pm 16.7 S 13 16 1017.0 - 0.0 - - - - - - -
23/04:00pm 16.6 S 13 17 1017.0 - 0.0 - - - - - - -
23/03:30pm 17.2 SSE 14 16 1016.9 - 0.0 - - - - - - -
23/03:00pm 18.3 S 14 17 1017.3 - 0.0 - - - - - - -
23/02:30pm 18.9 S 15 17 1017.4 - 0.0 - - - - - - -
23/02:00pm 19.6 SSE 14 17 1017.5 - 0.0 - - - - - - -
23/01:30pm 19.3 SSE 14 17 1017.7 - 0.0 - - - - - - -
23/01:00pm 19.8 SSE 13 15 1017.8 - 0.0 - - - - - - -
23/12:30pm 19.9 NE 5 9 1018.3 - 0.0 - - - - - - -
23/12:00pm 18.5 NNE 6 12 1018.7 - 0.0 - - - - - - -
23/11:30am 17.3 NNE 6 9 1019.2 - 0.0 - - - - - - -
23/11:00am 16.4 NNE 6 10 1019.6 - 0.0 - - - - - - -
23/10:30am 15.3 NNE 8 11 1019.7 - 0.0 - - - - - - -
23/10:00am 14.7 NNE 7 10 1020.0 - 0.0 - - - - - - -
23/09:30am 14.4 NE 5 8 1020.2 - 0.0 - - - - - - -
23/09:00am 13.4 NE 4 7 1020.4 - 1.2 - - - - - - -
23/08:30am 12.9 N 6 7 1020.2 - 1.2 - - - - - - -
23/08:00am 12.8 NNE 4 6 1020.1 - 1.2 - - - - - - -
23/07:30am 13.3 NE 1 5 1020.0 - 1.2 - - - - - - -
23/07:00am 12.4 NNE 4 5 1019.6 - 1.2 - - - - - - -
23/06:30am 11.9 NE 5 6 1019.8 - 1.2 - - - - - - -
23/06:00am 12.0 NE 4 5 1019.8 - 1.2 Recent precip. - - - - - -
23/05:30am 12.3 ENE 5 6 1019.6 - 1.2 - - - - - - -
23/05:00am 12.6 NW 4 6 1019.6 - 1.0 - - - - - - -
23/04:30am 12.6 N 4 6 1019.4 - 1.0 - - - - - - -
23/04:00am 11.9 NE 5 6 1019.7 - 1.0 - - - - - - -
23/03:30am 12.5 NE 4 6 1019.8 - 1.0 - - - - - - -
23/03:00am 12.1 ENE 5 6 1019.7 - 1.0 Recent precip. - - - - - -
23/02:30am 12.6 SSW 5 7 1020.2 - 1.0 - - - - - - -
23/02:00am 12.6 S 10 12 1020.7 - 0.6 - - - - - - -
23/01:30am 13.3 S 8 11 1020.9 - 0.2 - - - - - - -
23/01:00am 13.5 S 9 10 1021.2 - 0.2 - - - - - - -
23/12:30am 13.6 S 11 13 1021.4 - 0.2 - - - - - - -
23/12:00am 13.7 S 14 17 1021.4 - 0.2 - - - - - - -
 
Date/Time
CDT
Temp
°C
Wind Pressure Rain since
9am
mm
Weather Cloud Vis
km
Sea
Height
m
Swell
Dir  Spd
kts
Gust
kts
hPa Trend Height
m
Period
s
Dir
22/11:30pm 13.9 S 10 13 1021.4 - 0.2 - - - - - - -
22/11:00pm 13.3 SSE 12 14 1021.5 - 0.2 - - - - - - -
22/10:30pm 13.3 SSW 10 12 1021.8 - 0.2 - - - - - - -
22/10:00pm 13.3 S 16 18 1021.8 - 0.2 - - - - - - -
22/09:30pm 13.7 S 11 14 1021.8 - 0.2 - - - - - - -
22/09:00pm 13.1 S 13 15 1021.7 - 0.2 - - - - - - -
22/08:30pm 13.4 SW 11 13 1021.8 - 0.2 - - - - - - -
22/08:00pm 13.9 SSW 14 17 1021.6 - 0.2 - - - - - - -
22/07:30pm 13.7 SSW 11 14 1021.5 - 0.2 - - - - - - -
22/07:00pm 14.3 SW 10 12 1021.4 - 0.2 - - - - - - -
22/06:30pm 14.6 SSW 12 14 1021.2 - 0.2 - - - - - - -
22/06:00pm 15.5 SW 13 16 1021.1 - 0.2 - - - - - - -
22/05:30pm 15.9 SW 12 15 1021.1 - 0.2 - - - - - - -
22/05:00pm 16.3 SSW 14 16 1021.1 - 0.2 - - - - - - -
22/04:30pm 16.3 SSW 13 15 1021.1 - 0.2 - - - - - - -
22/04:00pm 15.8 S 14 17 1021.2 - 0.2 - - - - - - -
22/03:30pm 16.1 S 15 18 1021.3 - 0.2 - - - - - - -
22/03:00pm 16.7 SSW 16 19 1021.5 - 0.2 - - - - - - -
22/02:30pm 16.8 SSW 13 18 1021.9 - 0.2 - - - - - - -
22/02:00pm 16.6 SSW 12 16 1022.1 - 0.2 - - - - - - -
22/01:30pm 17.2 SSW 12 15 1022.3 - 0.2 - - - - - - -
22/01:00pm 16.6 SW 13 16 1022.5 - 0.2 - - - - - - -
22/12:30pm 17.0 SSW 12 16 1022.8 - 0.2 - - - - - - -
22/12:00pm 15.6 SSW 14 20 1022.9 - 0.0 - - - - - - -
22/11:30am 14.7 SSW 16 22 1023.0 - 0.0 - - - - - - -
22/11:00am 15.0 SSW 16 21 1023.2 - 0.0 - - - - - - -
22/10:30am 16.5 SW 14 19 1023.1 - 0.0 - - - - - - -
22/10:00am 15.8 SSW 15 19 1023.0 - 0.0 - - - - - - -
22/09:30am 15.0 S 17 20 1022.9 - 0.0 - - - - - - -
22/09:00am 13.4 SSW 16 20 1023.1 - 0.4 - - - - - - -
22/08:30am 13.7 SW 12 16 1023.1 - 0.4 - - - - - - -
22/08:00am 13.7 SSW 15 17 1022.8 - 0.4 - - - - - - -
22/07:30am 13.3 SW 14 16 1022.7 - 0.4 - - - - - - -
22/07:00am 13.6 SSW 15 17 1022.5 - 0.4 - - - - - - -
22/06:30am 13.8 S 13 16 1022.1 - 0.4 - - - - - - -
22/06:00am 13.5 SSW 15 18 1022.1 - 0.4 - - - - - - -
22/05:30am 13.2 SSW 11 13 1022.1 - 0.4 - - - - - - -
22/05:00am 12.6 SW 9 12 1022.1 - 0.4 - - - - - - -
22/04:30am 12.6 S 13 16 1022.2 - 0.4 - - - - - - -
22/04:00am 12.6 S 19 22 1022.5 - 0.4 - - - - - - -
22/03:30am 12.9 SSW 18 21 1022.8 - 0.4 - - - - - - -
22/03:00am 12.7 SSW 16 18 1023.1 - 0.4 - - - - - - -
22/02:30am 12.9 SSW 17 21 1023.3 - 0.4 - - - - - - -
22/02:00am 12.8 SSW 15 19 1023.5 - 0.4 - - - - - - -
22/01:30am 12.5 S 17 22 1023.9 - 0.4 - - - - - - -
22/01:00am 12.3 S 17 20 1024.3 - 0.4 - - - - - - -
22/12:30am 11.7 SSW 15 19 1024.6 - 0.4 - - - - - - -
22/12:00am 12.2 SW 17 21 1024.9 - 0.4 Rain - - - - - -
 
Date/Time
CDT
Temp
°C
Wind Pressure Rain since
9am
mm
Weather Cloud Vis
km
Sea
Height
m
Swell
Dir  Spd
kts
Gust
kts
hPa Trend Height
m
Period
s
Dir
21/11:30pm 12.5 SSW 16 19 1025.0 - 0.2 - - - - - - -
21/11:00pm 12.3 SSW 17 21 1025.1 - 0.2 - - - - - - -
21/10:30pm 12.3 SSW 11 14 1025.6 - 0.2 - - - - - - -
21/10:00pm 12.8 S 17 20 1025.6 - 0.2 - - - - - - -
21/09:30pm 12.2 SSW 19 23 1025.8 - 0.2 - - - - - - -
21/09:00pm 11.4 SSW 13 20 1026.2 - 0.2 Rain - - - - - -
21/08:30pm 11.9 S 17 20 1026.0 - 0.0 - - - - - - -
21/08:00pm 12.0 SSW 22 28 1025.9 - 0.0 - - - - - - -
21/07:51pm 12.6 S 18 28 1025.9 - 0.0 - - - - - - -
21/07:30pm 13.0 SSW 17 22 1025.9 - 0.0 - - - - - - -
21/07:00pm 13.5 SSW 21 25 1025.8 - 0.0 - - - - - - -
21/06:30pm 13.8 SSW 16 18 1025.8 - 0.0 - - - - - - -
21/06:00pm 14.0 SSW 18 20 1026.0 - 0.0 - - - - - - -
21/05:30pm 14.4 SSW 17 20 1026.1 - 0.0 - - - - - - -
21/05:00pm 14.2 SSW 16 19 1026.2 - 0.0 - - - - - - -
21/04:30pm 14.9 SSW 17 20 1026.3 - 0.0 - - - - - - -
21/04:00pm 15.0 SSW 16 19 1026.5 - 0.0 - - - - - - -
21/03:30pm 14.6 SSW 15 19 1026.8 - 0.0 - - - - - - -
21/03:00pm 15.5 SSW 17 20 1027.1 - 0.0 - - - - - - -
21/02:30pm 15.3 SSW 16 20 1027.6 - 0.0 - - - - - - -
21/02:00pm 15.3 SSW 15 18 1027.9 - 0.0 - - - - - - -
21/01:30pm 15.2 SW 12 15 1028.2 - 0.0 - - - - - - -
21/01:00pm 15.2 SSW 12 16 1028.3 - 0.0 - - - - - - -
21/12:30pm 15.9 SSW 13 17 1028.7 - 0.0 - - - - - - -
21/12:00pm 14.6 S 14 19 1028.8 - 0.0 - - - - - - -
21/11:30am 14.7 SSW 12 14 1029.3 - 0.0 - - - - - - -
21/11:00am 15.1 SSW 13 18 1029.5 - 0.0 - - - - - - -
21/10:30am 14.3 SSW 11 16 1029.8 - 0.0 - - - - - - -
21/10:00am 14.2 SSW 12 15 1029.9 - 0.0 - - - - - - -
21/09:30am 13.9 SSW 11 15 1029.9 - 0.0 - - - - - - -

Other Formats:

Comma delimited format used in spreadsheet applications
http://www.bom.gov.au/fwo/IDS60701/IDS60701.94677.axf

JavaScript Object Notation format (JSON) in row-major order
http://www.bom.gov.au/fwo/IDS60701/IDS60701.94677.json